sensor_id;sensor_type;location;lat;lon;timestamp;pressure;altitude;pressure_sealevel;temperature;humidity
80585;BME280;70137;56.482;9.154;2023-06-22T00:01:15;101781.34;;;15.67;81.47
80585;BME280;70137;56.482;9.154;2023-06-22T00:03:41;101779.06;;;15.64;81.14
80585;BME280;70137;56.482;9.154;2023-06-22T00:06:06;101786.25;;;15.62;81.46
80585;BME280;70137;56.482;9.154;2023-06-22T00:08:31;101784.94;;;15.58;81.22
80585;BME280;70137;56.482;9.154;2023-06-22T00:10:56;101780.06;;;15.55;80.94
80585;BME280;70137;56.482;9.154;2023-06-22T00:13:22;101771.56;;;15.53;81.26
80585;BME280;70137;56.482;9.154;2023-06-22T00:15:47;101775.69;;;15.48;81.62
80585;BME280;70137;56.482;9.154;2023-06-22T00:18:12;101777.00;;;15.43;81.47
80585;BME280;70137;56.482;9.154;2023-06-22T00:20:38;101780.75;;;15.41;81.28
80585;BME280;70137;56.482;9.154;2023-06-22T00:23:06;101780.47;;;15.36;81.33
80585;BME280;70137;56.482;9.154;2023-06-22T00:25:36;101781.13;;;15.30;82.27
80585;BME280;70137;56.482;9.154;2023-06-22T00:28:02;101779.84;;;15.26;82.12
80585;BME280;70137;56.482;9.154;2023-06-22T00:30:28;101775.94;;;15.22;82.08
80585;BME280;70137;56.482;9.154;2023-06-22T00:32:55;101776.44;;;15.17;82.23
80585;BME280;70137;56.482;9.154;2023-06-22T00:35:23;101771.88;;;15.11;82.01
80585;BME280;70137;56.482;9.154;2023-06-22T00:37:58;101779.09;;;15.09;82.30
80585;BME280;70137;56.482;9.154;2023-06-22T00:40:27;101784.66;;;15.06;82.14
80585;BME280;70137;56.482;9.154;2023-06-22T00:42:52;101772.06;;;15.01;82.41
80585;BME280;70137;56.482;9.154;2023-06-22T00:45:17;101774.03;;;14.99;82.73
80585;BME280;70137;56.482;9.154;2023-06-22T00:47:43;101783.19;;;14.95;82.12
80585;BME280;70137;56.482;9.154;2023-06-22T00:50:19;101790.38;;;14.93;82.77
80585;BME280;70137;56.482;9.154;2023-06-22T00:52:48;101789.88;;;14.89;82.74
80585;BME280;70137;56.482;9.154;2023-06-22T00:55:15;101783.34;;;14.85;82.66
80585;BME280;70137;56.482;9.154;2023-06-22T00:57:44;101791.69;;;14.81;83.14
80585;BME280;70137;56.482;9.154;2023-06-22T01:00:11;101793.50;;;14.80;83.24
80585;BME280;70137;56.482;9.154;2023-06-22T01:02:42;101794.47;;;14.79;83.25
80585;BME280;70137;56.482;9.154;2023-06-22T01:05:14;101793.97;;;14.76;83.55
80585;BME280;70137;56.482;9.154;2023-06-22T01:10:41;101805.41;;;14.75;84.31
80585;BME280;70137;56.482;9.154;2023-06-22T01:13:18;101805.09;;;14.70;84.35
80585;BME280;70137;56.482;9.154;2023-06-22T01:15:55;101800.84;;;14.69;84.16
80585;BME280;70137;56.482;9.154;2023-06-22T01:18:23;101806.38;;;14.66;84.43
80585;BME280;70137;56.482;9.154;2023-06-22T01:20:55;101802.47;;;14.62;84.30
80585;BME280;70137;56.482;9.154;2023-06-22T01:26:16;101808.34;;;14.55;85.32
80585;BME280;70137;56.482;9.154;2023-06-22T01:28:49;101808.66;;;14.52;85.10
80585;BME280;70137;56.482;9.154;2023-06-22T01:31:17;101817.47;;;14.51;85.36
80585;BME280;70137;56.482;9.154;2023-06-22T01:33:45;101819.75;;;14.46;85.71
80585;BME280;70137;56.482;9.154;2023-06-22T01:36:12;101819.22;;;14.43;85.65
80585;BME280;70137;56.482;9.154;2023-06-22T01:38:39;101822.97;;;14.40;86.20
80585;BME280;70137;56.482;9.154;2023-06-22T01:41:04;101820.84;;;14.36;86.24
80585;BME280;70137;56.482;9.154;2023-06-22T01:43:31;101827.84;;;14.35;85.94
80585;BME280;70137;56.482;9.154;2023-06-22T01:46:01;101829.16;;;14.31;85.74
80585;BME280;70137;56.482;9.154;2023-06-22T01:48:27;101824.41;;;14.26;86.74
80585;BME280;70137;56.482;9.154;2023-06-22T01:50:54;101829.16;;;14.23;86.19
80585;BME280;70137;56.482;9.154;2023-06-22T01:53:23;101832.72;;;14.22;86.97
80585;BME280;70137;56.482;9.154;2023-06-22T01:55:54;101837.94;;;14.22;87.10
80585;BME280;70137;56.482;9.154;2023-06-22T01:58:26;101840.72;;;14.20;86.82
80585;BME280;70137;56.482;9.154;2023-06-22T02:00:59;101837.44;;;14.18;87.32
80585;BME280;70137;56.482;9.154;2023-06-22T02:03:34;101835.97;;;14.16;87.63
80585;BME280;70137;56.482;9.154;2023-06-22T02:06:05;101837.94;;;14.14;87.34
80585;BME280;70137;56.482;9.154;2023-06-22T02:08:44;101832.72;;;14.14;87.75
80585;BME280;70137;56.482;9.154;2023-06-22T02:11:13;101839.56;;;14.15;87.50
80585;BME280;70137;56.482;9.154;2023-06-22T02:13:40;101840.53;;;14.14;87.00
80585;BME280;70137;56.482;9.154;2023-06-22T02:16:10;101845.09;;;14.12;87.08
80585;BME280;70137;56.482;9.154;2023-06-22T02:18:35;101846.06;;;14.11;86.98
80585;BME280;70137;56.482;9.154;2023-06-22T02:21:01;101844.75;;;14.07;86.59
80585;BME280;70137;56.482;9.154;2023-06-22T02:23:27;101842.47;;;14.03;86.51
80585;BME280;70137;56.482;9.154;2023-06-22T02:25:59;101848.00;;;14.00;86.22
80585;BME280;70137;56.482;9.154;2023-06-22T02:28:25;101843.78;;;13.99;87.09
80585;BME280;70137;56.482;9.154;2023-06-22T02:30:53;101837.88;;;13.97;86.43
80585;BME280;70137;56.482;9.154;2023-06-22T02:33:18;101842.13;;;13.98;86.81
80585;BME280;70137;56.482;9.154;2023-06-22T02:35:44;101845.69;;;13.97;87.41
80585;BME280;70137;56.482;9.154;2023-06-22T02:38:13;101850.91;;;13.97;86.64
80585;BME280;70137;56.482;9.154;2023-06-22T02:40:38;101856.94;;;13.98;87.52
80585;BME280;70137;56.482;9.154;2023-06-22T02:43:04;101849.13;;;13.98;87.01
80585;BME280;70137;56.482;9.154;2023-06-22T02:45:29;101855.78;;;13.92;87.77
80585;BME280;70137;56.482;9.154;2023-06-22T02:47:55;101846.63;;;13.88;87.49
80585;BME280;70137;56.482;9.154;2023-06-22T02:50:23;101843.69;;;13.83;87.53
80585;BME280;70137;56.482;9.154;2023-06-22T02:52:51;101848.41;;;13.80;86.63
80585;BME280;70137;56.482;9.154;2023-06-22T02:55:16;101847.91;;;13.76;86.70
80585;BME280;70137;56.482;9.154;2023-06-22T02:57:44;101849.03;;;13.73;87.02
80585;BME280;70137;56.482;9.154;2023-06-22T03:00:12;101850.19;;;13.71;87.33
80585;BME280;70137;56.482;9.154;2023-06-22T03:02:44;101846.22;;;13.67;87.58
80585;BME280;70137;56.482;9.154;2023-06-22T03:05:10;101850.13;;;13.63;87.55
80585;BME280;70137;56.482;9.154;2023-06-22T03:07:41;101851.41;;;13.59;87.48
80585;BME280;70137;56.482;9.154;2023-06-22T03:10:11;101852.38;;;13.58;87.39
80585;BME280;70137;56.482;9.154;2023-06-22T03:12:38;101859.38;;;13.57;87.60
80585;BME280;70137;56.482;9.154;2023-06-22T03:15:13;101853.03;;;13.60;88.55
80585;BME280;70137;56.482;9.154;2023-06-22T03:17:40;101861.22;;;13.65;89.08
80585;BME280;70137;56.482;9.154;2023-06-22T03:20:07;101857.31;;;13.69;88.60
80585;BME280;70137;56.482;9.154;2023-06-22T03:22:41;101862.06;;;13.73;88.79
80585;BME280;70137;56.482;9.154;2023-06-22T03:25:09;101852.78;;;13.79;89.16
80585;BME280;70137;56.482;9.154;2023-06-22T03:27:41;101850.53;;;13.84;89.51
80585;BME280;70137;56.482;9.154;2023-06-22T03:30:08;101860.66;;;13.87;89.98
80585;BME280;70137;56.482;9.154;2023-06-22T03:32:34;101846.50;;;13.90;90.00
80585;BME280;70137;56.482;9.154;2023-06-22T03:35:00;101851.22;;;13.94;89.66
80585;BME280;70137;56.482;9.154;2023-06-22T03:37:28;101855.16;;;13.98;89.52
80585;BME280;70137;56.482;9.154;2023-06-22T03:39:54;101855.66;;;14.02;90.22
80585;BME280;70137;56.482;9.154;2023-06-22T03:42:20;101859.09;;;14.02;90.07
80585;BME280;70137;56.482;9.154;2023-06-22T03:44:45;101850.28;;;14.03;90.25
80585;BME280;70137;56.482;9.154;2023-06-22T03:47:13;101851.59;;;14.08;90.33
80585;BME280;70137;56.482;9.154;2023-06-22T03:49:38;101856.50;;;14.11;90.03
80585;BME280;70137;56.482;9.154;2023-06-22T03:52:04;101855.38;;;14.13;90.36
80585;BME280;70137;56.482;9.154;2023-06-22T03:54:30;101857.47;;;14.18;90.67
80585;BME280;70137;56.482;9.154;2023-06-22T03:56:58;101858.47;;;14.25;90.80
80585;BME280;70137;56.482;9.154;2023-06-22T03:59:25;101854.59;;;14.29;90.41
80585;BME280;70137;56.482;9.154;2023-06-22T04:01:50;101852.63;;;14.31;90.35
80585;BME280;70137;56.482;9.154;2023-06-22T04:04:17;101856.38;;;14.37;90.64
80585;BME280;70137;56.482;9.154;2023-06-22T04:06:42;101852.66;;;14.39;90.31
80585;BME280;70137;56.482;9.154;2023-06-22T04:09:07;101862.47;;;14.45;90.52
80585;BME280;70137;56.482;9.154;2023-06-22T04:11:33;101853.19;;;14.51;90.58
80585;BME280;70137;56.482;9.154;2023-06-22T04:13:58;101861.50;;;14.54;90.01
80585;BME280;70137;56.482;9.154;2023-06-22T04:16:26;101853.84;;;14.61;89.99
80585;BME280;70137;56.482;9.154;2023-06-22T04:18:52;101854.31;;;14.65;90.50
80585;BME280;70137;56.482;9.154;2023-06-22T04:21:17;101853.22;;;14.67;90.05
80585;BME280;70137;56.482;9.154;2023-06-22T04:23:45;101851.72;;;14.73;90.07
80585;BME280;70137;56.482;9.154;2023-06-22T04:26:11;101868.72;;;14.77;90.40
80585;BME280;70137;56.482;9.154;2023-06-22T04:28:36;101861.19;;;14.82;89.98
80585;BME280;70137;56.482;9.154;2023-06-22T04:31:02;101866.75;;;14.87;89.88
80585;BME280;70137;56.482;9.154;2023-06-22T04:33:28;101867.22;;;14.91;89.74
80585;BME280;70137;56.482;9.154;2023-06-22T04:35:55;101867.69;;;14.94;90.48
80585;BME280;70137;56.482;9.154;2023-06-22T04:38:22;101867.06;;;15.00;90.36
80585;BME280;70137;56.482;9.154;2023-06-22T04:40:47;101872.59;;;15.05;89.89
80585;BME280;70137;56.482;9.154;2023-06-22T04:43:15;101871.13;;;15.11;89.98
80585;BME280;70137;56.482;9.154;2023-06-22T04:45:40;101872.41;;;15.15;89.53
80585;BME280;70137;56.482;9.154;2023-06-22T04:48:06;101885.00;;;15.20;89.68
80585;BME280;70137;56.482;9.154;2023-06-22T04:50:31;101885.00;;;15.20;90.23
80585;BME280;70137;56.482;9.154;2023-06-22T04:52:56;101887.59;;;15.20;89.64
80585;BME280;70137;56.482;9.154;2023-06-22T04:55:24;101883.84;;;15.22;89.71
80585;BME280;70137;56.482;9.154;2023-06-22T04:57:51;101880.75;;;15.27;89.20
80585;BME280;70137;56.482;9.154;2023-06-22T05:00:17;101887.25;;;15.31;89.25
80585;BME280;70137;56.482;9.154;2023-06-22T05:02:45;101876.16;;;15.37;89.12
80585;BME280;70137;56.482;9.154;2023-06-22T05:05:11;101883.47;;;15.41;89.25
80585;BME280;70137;56.482;9.154;2023-06-22T05:07:47;101876.78;;;15.47;88.41
80585;BME280;70137;56.482;9.154;2023-06-22T05:10:13;101880.50;;;15.53;88.51
80585;BME280;70137;56.482;9.154;2023-06-22T05:12:40;101885.59;;;15.54;87.82
80585;BME280;70137;56.482;9.154;2023-06-22T05:15:07;101875.44;;;15.59;87.99
80585;BME280;70137;56.482;9.154;2023-06-22T05:17:35;101871.84;;;15.68;87.50
80585;BME280;70137;56.482;9.154;2023-06-22T05:20:02;101877.69;;;15.79;87.47
80585;BME280;70137;56.482;9.154;2023-06-22T05:22:27;101886.63;;;15.92;87.52
80585;BME280;70137;56.482;9.154;2023-06-22T05:24:53;101888.38;;;16.00;86.82
80585;BME280;70137;56.482;9.154;2023-06-22T05:27:18;101891.31;;;16.05;86.98
80585;BME280;70137;56.482;9.154;2023-06-22T05:29:44;101887.94;;;16.19;86.65
80585;BME280;70137;56.482;9.154;2023-06-22T05:32:09;101896.06;;;16.33;85.70
80585;BME280;70137;56.482;9.154;2023-06-22T05:34:34;101888.44;;;16.46;85.13
80585;BME280;70137;56.482;9.154;2023-06-22T05:37:07;101886.41;;;16.56;85.18
80585;BME280;70137;56.482;9.154;2023-06-22T05:39:34;101887.81;;;16.67;84.10
80585;BME280;70137;56.482;9.154;2023-06-22T05:42:04;101891.53;;;16.80;84.39
80585;BME280;70137;56.482;9.154;2023-06-22T05:44:29;101889.66;;;16.89;82.75
80585;BME280;70137;56.482;9.154;2023-06-22T05:46:54;101899.16;;;17.05;82.69
80585;BME280;70137;56.482;9.154;2023-06-22T05:49:20;101894.84;;;17.12;82.15
80585;BME280;70137;56.482;9.154;2023-06-22T05:51:47;101893.28;;;17.03;82.51
80585;BME280;70137;56.482;9.154;2023-06-22T05:54:12;101900.16;;;17.04;82.21
80585;BME280;70137;56.482;9.154;2023-06-22T05:56:39;101903.69;;;17.11;81.93
80585;BME280;70137;56.482;9.154;2023-06-22T05:59:04;101896.03;;;17.24;81.85
80585;BME280;70137;56.482;9.154;2023-06-22T06:01:30;101906.53;;;17.39;81.10
80585;BME280;70137;56.482;9.154;2023-06-22T06:03:59;101903.75;;;17.40;80.38
80585;BME280;70137;56.482;9.154;2023-06-22T06:06:25;101903.94;;;17.39;80.55
80585;BME280;70137;56.482;9.154;2023-06-22T06:08:53;101903.91;;;17.54;80.19
80585;BME280;70137;56.482;9.154;2023-06-22T06:11:18;101898.88;;;17.67;78.85
80585;BME280;70137;56.482;9.154;2023-06-22T06:13:44;101904.31;;;17.80;78.79
80585;BME280;70137;56.482;9.154;2023-06-22T06:16:10;101909.47;;;17.88;78.13
80585;BME280;70137;56.482;9.154;2023-06-22T06:18:35;101909.19;;;17.98;77.19
80585;BME280;70137;56.482;9.154;2023-06-22T06:21:02;101910.72;;;18.07;77.09
80585;BME280;70137;56.482;9.154;2023-06-22T06:23:28;101907.00;;;18.01;76.96
80585;BME280;70137;56.482;9.154;2023-06-22T06:25:53;101900.72;;;18.17;77.51
80585;BME280;70137;56.482;9.154;2023-06-22T06:28:18;101904.00;;;18.41;76.92
80585;BME280;70137;56.482;9.154;2023-06-22T06:30:44;101903.50;;;18.52;75.80
80585;BME280;70137;56.482;9.154;2023-06-22T06:36:15;101911.34;;;18.88;74.88
80585;BME280;70137;56.482;9.154;2023-06-22T06:38:41;101908.59;;;18.96;74.16
80585;BME280;70137;56.482;9.154;2023-06-22T06:41:07;101901.31;;;18.98;73.50
80585;BME280;70137;56.482;9.154;2023-06-22T06:43:32;101907.19;;;19.00;72.75
80585;BME280;70137;56.482;9.154;2023-06-22T06:45:57;101910.09;;;19.05;72.77
80585;BME280;70137;56.482;9.154;2023-06-22T06:48:22;101903.81;;;19.06;72.33
80585;BME280;70137;56.482;9.154;2023-06-22T06:50:48;101901.06;;;19.14;72.82
80585;BME280;70137;56.482;9.154;2023-06-22T06:53:13;101903.22;;;19.39;73.82
80585;BME280;70137;56.482;9.154;2023-06-22T06:55:38;101900.50;;;19.54;71.15
80585;BME280;70137;56.482;9.154;2023-06-22T06:58:04;101901.19;;;19.62;71.03
80585;BME280;70137;56.482;9.154;2023-06-22T07:00:32;101902.44;;;19.73;70.87
80585;BME280;70137;56.482;9.154;2023-06-22T07:02:58;101897.66;;;19.90;71.08
80585;BME280;70137;56.482;9.154;2023-06-22T07:05:23;101902.03;;;20.17;70.62
80585;BME280;70137;56.482;9.154;2023-06-22T07:07:49;101910.59;;;20.46;69.65
80585;BME280;70137;56.482;9.154;2023-06-22T07:10:14;101909.41;;;20.55;67.98
80585;BME280;70137;56.482;9.154;2023-06-22T07:12:40;101905.78;;;20.69;67.15
80585;BME280;70137;56.482;9.154;2023-06-22T07:15:08;101908.03;;;20.92;69.34
80585;BME280;70137;56.482;9.154;2023-06-22T07:17:34;101918.56;;;21.12;68.50
80585;BME280;70137;56.482;9.154;2023-06-22T07:20:00;101916.94;;;21.18;65.66
80585;BME280;70137;56.482;9.154;2023-06-22T07:22:28;101907.81;;;21.27;65.30
80585;BME280;70137;56.482;9.154;2023-06-22T07:24:54;101919.56;;;21.37;64.10
80585;BME280;70137;56.482;9.154;2023-06-22T07:27:19;101914.09;;;21.46;64.18
80585;BME280;70137;56.482;9.154;2023-06-22T07:29:46;101922.41;;;21.42;62.47
80585;BME280;70137;56.482;9.154;2023-06-22T07:32:11;101916.53;;;21.01;63.79
80585;BME280;70137;56.482;9.154;2023-06-22T07:34:37;101911.66;;;21.11;65.12
80585;BME280;70137;56.482;9.154;2023-06-22T07:37:09;101914.72;;;21.14;64.59
80585;BME280;70137;56.482;9.154;2023-06-22T07:39:34;101913.09;;;21.33;63.74
80585;BME280;70137;56.482;9.154;2023-06-22T07:42:00;101922.56;;;21.61;64.28
80585;BME280;70137;56.482;9.154;2023-06-22T07:44:25;101916.81;;;21.77;62.40
80585;BME280;70137;56.482;9.154;2023-06-22T07:46:50;101912.34;;;21.84;62.68
80585;BME280;70137;56.482;9.154;2023-06-22T07:49:18;101911.47;;;21.90;61.01
80585;BME280;70137;56.482;9.154;2023-06-22T07:51:44;101911.75;;;21.82;61.38
80585;BME280;70137;56.482;9.154;2023-06-22T07:54:09;101919.91;;;21.61;61.32
80585;BME280;70137;56.482;9.154;2023-06-22T07:56:42;101913.28;;;21.38;63.81
80585;BME280;70137;56.482;9.154;2023-06-22T07:59:10;101917.09;;;21.56;62.49
80585;BME280;70137;56.482;9.154;2023-06-22T08:01:35;101912.84;;;21.48;63.06
80585;BME280;70137;56.482;9.154;2023-06-22T08:04:01;101903.97;;;21.42;62.68
80585;BME280;70137;56.482;9.154;2023-06-22T08:06:26;101899.44;;;21.50;62.51
80585;BME280;70137;56.482;9.154;2023-06-22T08:08:52;101897.63;;;21.57;62.28
80585;BME280;70137;56.482;9.154;2023-06-22T08:11:19;101898.13;;;21.79;63.29
80585;BME280;70137;56.482;9.154;2023-06-22T08:13:47;101898.41;;;22.15;60.92
80585;BME280;70137;56.482;9.154;2023-06-22T08:16:12;101897.72;;;22.58;60.00
80585;BME280;70137;56.482;9.154;2023-06-22T08:18:38;101894.81;;;22.66;59.67
80585;BME280;70137;56.482;9.154;2023-06-22T08:21:03;101894.22;;;22.64;59.54
80585;BME280;70137;56.482;9.154;2023-06-22T08:23:29;101903.31;;;22.43;58.93
80585;BME280;70137;56.482;9.154;2023-06-22T08:25:54;101901.06;;;22.09;60.83
80585;BME280;70137;56.482;9.154;2023-06-22T08:28:19;101899.28;;;21.96;59.46
80585;BME280;70137;56.482;9.154;2023-06-22T08:30:45;101906.03;;;21.92;59.59
80585;BME280;70137;56.482;9.154;2023-06-22T08:33:10;101911.69;;;21.95;61.63
80585;BME280;70137;56.482;9.154;2023-06-22T08:35:35;101908.44;;;21.93;60.83
80585;BME280;70137;56.482;9.154;2023-06-22T08:38:01;101899.06;;;22.11;61.35
80585;BME280;70137;56.482;9.154;2023-06-22T08:40:27;101909.69;;;22.29;60.16
80585;BME280;70137;56.482;9.154;2023-06-22T08:42:59;101908.13;;;22.53;58.02
80585;BME280;70137;56.482;9.154;2023-06-22T08:45:25;101897.94;;;22.88;57.56
80585;BME280;70137;56.482;9.154;2023-06-22T08:47:50;101894.78;;;23.41;57.19
80585;BME280;70137;56.482;9.154;2023-06-22T08:50:15;101894.53;;;23.97;54.63
80585;BME280;70137;56.482;9.154;2023-06-22T08:52:41;101904.88;;;24.17;50.97
80585;BME280;70137;56.482;9.154;2023-06-22T08:55:07;101899.06;;;23.79;52.45
80585;BME280;70137;56.482;9.154;2023-06-22T08:57:32;101905.34;;;23.66;54.38
80585;BME280;70137;56.482;9.154;2023-06-22T08:59:58;101907.44;;;23.94;53.75
80585;BME280;70137;56.482;9.154;2023-06-22T09:02:25;101913.44;;;24.01;53.82
80585;BME280;70137;56.482;9.154;2023-06-22T09:04:50;101911.25;;;23.98;51.67
80585;BME280;70137;56.482;9.154;2023-06-22T09:07:21;101913.06;;;24.46;51.58
80585;BME280;70137;56.482;9.154;2023-06-22T09:09:48;101905.69;;;24.60;52.16
80585;BME280;70137;56.482;9.154;2023-06-22T09:12:17;101900.59;;;25.11;48.91
80585;BME280;70137;56.482;9.154;2023-06-22T09:14:45;101903.28;;;25.52;49.45
80585;BME280;70137;56.482;9.154;2023-06-22T09:17:10;101895.28;;;25.63;47.31
80585;BME280;70137;56.482;9.154;2023-06-22T09:19:35;101906.22;;;25.38;46.44
80585;BME280;70137;56.482;9.154;2023-06-22T09:22:00;101910.25;;;25.06;47.70
80585;BME280;70137;56.482;9.154;2023-06-22T09:24:26;101906.53;;;24.95;48.61
80585;BME280;70137;56.482;9.154;2023-06-22T09:26:51;101905.53;;;25.20;48.90
80585;BME280;70137;56.482;9.154;2023-06-22T09:29:17;101902.00;;;25.54;48.10
80585;BME280;70137;56.482;9.154;2023-06-22T09:31:42;101901.88;;;25.73;47.93
80585;BME280;70137;56.482;9.154;2023-06-22T09:34:07;101903.38;;;25.68;46.78
80585;BME280;70137;56.482;9.154;2023-06-22T09:36:33;101899.88;;;25.39;44.52
80585;BME280;70137;56.482;9.154;2023-06-22T09:38:58;101900.34;;;25.25;45.75
80585;BME280;70137;56.482;9.154;2023-06-22T09:41:24;101898.25;;;24.92;47.66
80585;BME280;70137;56.482;9.154;2023-06-22T09:43:50;101901.25;;;24.95;47.91
80585;BME280;70137;56.482;9.154;2023-06-22T09:46:16;101896.97;;;24.94;47.58
80585;BME280;70137;56.482;9.154;2023-06-22T09:48:41;101902.78;;;25.03;46.87
80585;BME280;70137;56.482;9.154;2023-06-22T09:51:06;101891.22;;;25.09;45.95
80585;BME280;70137;56.482;9.154;2023-06-22T09:53:32;101884.28;;;24.84;48.00
80585;BME280;70137;56.482;9.154;2023-06-22T09:55:57;101885.19;;;24.67;48.68
80585;BME280;70137;56.482;9.154;2023-06-22T09:58:23;101882.91;;;24.82;49.47
80585;BME280;70137;56.482;9.154;2023-06-22T10:00:48;101884.66;;;25.23;49.00
80585;BME280;70137;56.482;9.154;2023-06-22T10:03:13;101882.88;;;25.52;46.93
80585;BME280;70137;56.482;9.154;2023-06-22T10:05:39;101892.97;;;25.79;47.53
80585;BME280;70137;56.482;9.154;2023-06-22T10:08:04;101891.03;;;26.03;44.35
80585;BME280;70137;56.482;9.154;2023-06-22T10:10:29;101895.66;;;26.24;43.83
80585;BME280;70137;56.482;9.154;2023-06-22T10:12:56;101911.50;;;26.47;43.92
80585;BME280;70137;56.482;9.154;2023-06-22T10:15:22;101915.84;;;26.87;43.37
80585;BME280;70137;56.482;9.154;2023-06-22T10:17:48;101911.78;;;27.01;41.79
80585;BME280;70137;56.482;9.154;2023-06-22T10:20:13;101897.34;;;26.75;42.40
80585;BME280;70137;56.482;9.154;2023-06-22T10:22:43;101890.47;;;26.79;44.66
80585;BME280;70137;56.482;9.154;2023-06-22T10:25:10;101900.03;;;26.97;41.90
80585;BME280;70137;56.482;9.154;2023-06-22T10:27:36;101888.75;;;26.90;43.51
80585;BME280;70137;56.482;9.154;2023-06-22T10:30:02;101893.13;;;26.63;44.55
80585;BME280;70137;56.482;9.154;2023-06-22T10:32:27;101893.13;;;26.46;44.99
80585;BME280;70137;56.482;9.154;2023-06-22T10:34:55;101894.75;;;26.64;45.45
80585;BME280;70137;56.482;9.154;2023-06-22T10:37:20;101887.25;;;26.77;44.88
80585;BME280;70137;56.482;9.154;2023-06-22T10:39:46;101892.66;;;26.66;43.96
80585;BME280;70137;56.482;9.154;2023-06-22T10:42:12;101897.97;;;26.49;44.34
80585;BME280;70137;56.482;9.154;2023-06-22T10:44:37;101890.88;;;26.71;43.65
80585;BME280;70137;56.482;9.154;2023-06-22T10:47:04;101899.19;;;26.75;43.83
80585;BME280;70137;56.482;9.154;2023-06-22T10:49:29;101894.22;;;27.00;44.57
80585;BME280;70137;56.482;9.154;2023-06-22T10:51:55;101898.59;;;26.90;43.66
80585;BME280;70137;56.482;9.154;2023-06-22T10:54:20;101892.38;;;27.18;44.07
80585;BME280;70137;56.482;9.154;2023-06-22T10:56:45;101884.50;;;27.28;41.31
80585;BME280;70137;56.482;9.154;2023-06-22T10:59:10;101897.28;;;27.48;42.09
80585;BME280;70137;56.482;9.154;2023-06-22T11:01:36;101889.28;;;27.70;42.15
80585;BME280;70137;56.482;9.154;2023-06-22T11:04:02;101890.78;;;27.60;39.79
80585;BME280;70137;56.482;9.154;2023-06-22T11:06:27;101888.84;;;27.34;40.90
80585;BME280;70137;56.482;9.154;2023-06-22T11:08:52;101889.09;;;27.54;40.49
80585;BME280;70137;56.482;9.154;2023-06-22T11:11:18;101888.56;;;27.74;40.75
80585;BME280;70137;56.482;9.154;2023-06-22T11:13:43;101884.75;;;27.48;38.47
80585;BME280;70137;56.482;9.154;2023-06-22T11:16:09;101889.97;;;27.38;38.36
80585;BME280;70137;56.482;9.154;2023-06-22T11:18:35;101881.97;;;27.60;38.74
80585;BME280;70137;56.482;9.154;2023-06-22T11:21:00;101877.22;;;27.84;39.59
80585;BME280;70137;56.482;9.154;2023-06-22T11:23:25;101884.34;;;28.05;39.20
80585;BME280;70137;56.482;9.154;2023-06-22T11:25:53;101885.56;;;28.19;38.46
80585;BME280;70137;56.482;9.154;2023-06-22T11:28:18;101890.56;;;28.16;38.03
80585;BME280;70137;56.482;9.154;2023-06-22T11:30:43;101883.34;;;28.38;37.39
80585;BME280;70137;56.482;9.154;2023-06-22T11:33:08;101881.56;;;28.54;37.30
80585;BME280;70137;56.482;9.154;2023-06-22T11:35:34;101877.84;;;28.55;36.94
80585;BME280;70137;56.482;9.154;2023-06-22T11:37:59;101880.44;;;28.45;36.93
80585;BME280;70137;56.482;9.154;2023-06-22T11:40:24;101883.34;;;28.38;36.65
80585;BME280;70137;56.482;9.154;2023-06-22T11:42:50;101886.25;;;27.83;36.13
80585;BME280;70137;56.482;9.154;2023-06-22T11:45:15;101881.72;;;27.83;35.35
80585;BME280;70137;56.482;9.154;2023-06-22T11:47:42;101878.72;;;27.75;34.62
80585;BME280;70137;56.482;9.154;2023-06-22T11:50:08;101891.69;;;27.93;36.63
80585;BME280;70137;56.482;9.154;2023-06-22T11:52:36;101877.59;;;28.24;36.16
80585;BME280;70137;56.482;9.154;2023-06-22T11:55:01;101884.78;;;28.51;33.51
80585;BME280;70137;56.482;9.154;2023-06-22T11:57:29;101889.19;;;28.72;33.34
80585;BME280;70137;56.482;9.154;2023-06-22T11:59:55;101882.97;;;28.99;33.67
80585;BME280;70137;56.482;9.154;2023-06-22T12:02:20;101885.44;;;29.11;33.60
80585;BME280;70137;56.482;9.154;2023-06-22T12:04:45;101888.50;;;29.34;33.37
80585;BME280;70137;56.482;9.154;2023-06-22T12:07:11;101888.56;;;29.50;31.08
80585;BME280;70137;56.482;9.154;2023-06-22T12:09:36;101890.19;;;29.56;30.42
80585;BME280;70137;56.482;9.154;2023-06-22T12:12:34;101888.59;;;29.55;29.89
80585;BME280;70137;56.482;9.154;2023-06-22T12:19:39;101875.78;;;29.72;30.39
80585;BME280;70137;56.482;9.154;2023-06-22T12:22:08;101872.09;;;29.83;30.52
80585;BME280;70137;56.482;9.154;2023-06-22T12:24:39;101869.16;;;29.75;28.99
80585;BME280;70137;56.482;9.154;2023-06-22T12:27:05;101872.88;;;29.74;28.69
80585;BME280;70137;56.482;9.154;2023-06-22T12:46:04;101870.47;;;29.72;29.66
80585;BME280;70137;56.482;9.154;2023-06-22T12:48:29;101861.66;;;29.77;29.71
80585;BME280;70137;56.482;9.154;2023-06-22T12:50:55;101857.66;;;29.74;29.47
80585;BME280;70137;56.482;9.154;2023-06-22T12:53:20;101860.31;;;29.74;30.20
80585;BME280;70137;56.482;9.154;2023-06-22T12:55:47;101858.00;;;30.24;30.52
80585;BME280;70137;56.482;9.154;2023-06-22T12:58:13;101860.88;;;30.58;29.42
80585;BME280;70137;56.482;9.154;2023-06-22T13:00:38;101863.84;;;30.66;29.74
80585;BME280;70137;56.482;9.154;2023-06-22T13:03:03;101848.84;;;30.75;28.89
80585;BME280;70137;56.482;9.154;2023-06-22T13:05:29;101851.28;;;30.72;29.15
80585;BME280;70137;56.482;9.154;2023-06-22T13:07:55;101851.28;;;30.67;28.88
80585;BME280;70137;56.482;9.154;2023-06-22T13:10:20;101848.59;;;30.72;28.17
80585;BME280;70137;56.482;9.154;2023-06-22T13:12:46;101845.91;;;30.72;29.68
80585;BME280;70137;56.482;9.154;2023-06-22T13:15:11;101844.81;;;30.78;29.31
80585;BME280;70137;56.482;9.154;2023-06-22T13:17:36;101844.84;;;30.73;28.07